Estación Meteorológica Peña el Pijo (Robertgarden) [ 12/17/17 01:37:40 CET ]

Fecha Hora Presion(HPa) Temp (°C) Humedad % Rocio (°C) Viento ( m/s) Direccion Lluvia 1Hora(mm) Lluvia 24H(mm) LLuvia Total(mm)
2017-Dec-01 01:02:02 1007.600 -2.5 80 -5.5       0.51 1479.92
2017-Dec-01 02:04:15 1007.700 -2.4 81 -5.2       0.51 1479.92
2017-Dec-01 03:01:44 1008.000 -2.5 81 -5.3       0.51 1479.92
2017-Dec-01 04:04:32 1007.800 -2.6 81 -5.4       0.51 1479.92
2017-Dec-01 05:01:42 1007.000 -2.9 81 -5.7       0.51 1479.92
2017-Dec-01 06:01:41 1006.500 -3.0 80 -6.0       0.51 1479.92
2017-Dec-01 07:01:30 1006.500 -2.9 81 -5.7       0.51 1479.92
2017-Dec-01 08:01:42 1006.400 -3.9 81 -6.7       0.51 1479.92
2017-Dec-01 09:01:49 1006.200 -1.0 81 -3.8       0.51 1479.92
2017-Dec-01 10:01:48 1005.500 4.3 74 0.0         1479.92
2017-Dec-01 11:01:48 1005.600 6.4 56 -1.8         1479.92
2017-Dec-01 12:01:47 1005.500 6.9 48 -3.4         1479.92
2017-Dec-01 13:01:48 1004.400 7.6 44 -4.0         1479.92
2017-Dec-01 14:02:03 1003.500 8.8 40 -4.1         1479.92
2017-Dec-01 15:01:43 1002.700 8.4 42 -3.8         1479.92
2017-Dec-01 16:01:47 1002.900 7.2 45 -4.0         1479.92
2017-Dec-01 17:02:02 1003.300 5.3 52 -3.8         1479.92
2017-Dec-01 18:01:49 1004.500 4.6 58 -3.0         1479.92
2017-Dec-01 19:02:00 1005.900 1.3 73 -3.1         1479.92
2017-Dec-01 20:31:50 1006.900 1.3 73 -3.1         1479.92
2017-Dec-01 21:02:03 1007.100 1.2 73 -3.2         1479.92
2017-Dec-01 22:01:48 1007.800 0.3 71 -4.3         1479.92
2017-Dec-01 23:01:52 1008.100 -0.6 71 -5.2         1479.92

Temperatura Máxima:    Temperatura Mínima:-3°
Presión Máxima:1008.100 Hpa    Presión Mínima:1002.700 Hpa


Volver